createdAt,value
2019-01-21T00:00:35.669Z,-2.80
2019-01-21T00:02:37.057Z,-2.80
2019-01-21T00:04:38.496Z,-2.80
2019-01-21T00:06:39.927Z,-2.90
2019-01-21T00:08:41.283Z,-2.90
2019-01-21T00:10:42.678Z,-2.90
2019-01-21T00:12:44.093Z,-2.90
2019-01-21T00:14:45.617Z,-2.90
2019-01-21T00:16:47.063Z,-2.90
2019-01-21T00:18:48.432Z,-3.00
2019-01-21T00:20:49.989Z,-3.00
2019-01-21T00:22:51.429Z,-3.10
2019-01-21T00:24:52.791Z,-3.10
2019-01-21T00:26:54.301Z,-3.10
2019-01-21T00:28:55.728Z,-3.10
2019-01-21T00:30:57.112Z,-3.10
2019-01-21T00:32:58.535Z,-3.10
2019-01-21T00:34:59.920Z,-3.10
2019-01-21T00:37:03.527Z,-3.10
2019-01-21T00:39:05.390Z,-3.10
2019-01-21T00:41:06.743Z,-3.10
2019-01-21T00:43:08.133Z,-3.00
2019-01-21T00:45:09.637Z,-3.10
2019-01-21T00:47:11.004Z,-3.00
2019-01-21T00:49:12.386Z,-3.00
2019-01-21T00:51:13.840Z,-3.00
2019-01-21T00:53:15.223Z,-3.00
2019-01-21T00:55:16.573Z,-3.00
2019-01-21T00:57:18.015Z,-3.00
2019-01-21T00:59:19.376Z,-3.10
2019-01-21T01:01:20.806Z,-3.10
2019-01-21T01:03:22.249Z,-3.10
2019-01-21T01:05:23.829Z,-3.20
2019-01-21T01:07:25.209Z,-3.10
2019-01-21T01:09:26.621Z,-3.10
2019-01-21T01:11:28.057Z,-3.10
2019-01-21T01:13:29.444Z,-3.10
2019-01-21T01:15:30.813Z,-3.00
2019-01-21T01:17:37.081Z,-3.00
2019-01-21T01:19:35.520Z,-3.00
2019-01-21T01:21:36.890Z,-3.00
2019-01-21T01:23:38.442Z,-3.00
2019-01-21T01:25:39.808Z,-3.00
2019-01-21T01:27:41.191Z,-3.00
2019-01-21T01:29:42.630Z,-3.10
2019-01-21T01:31:44.010Z,-3.10
2019-01-21T01:33:45.363Z,-3.10
2019-01-21T01:35:46.795Z,-3.10
2019-01-21T01:37:48.175Z,-3.10
2019-01-21T01:39:49.621Z,-3.10
2019-01-21T01:41:51.250Z,-3.10
2019-01-21T01:43:52.633Z,-3.10
2019-01-21T01:45:54.018Z,-3.10
2019-01-21T01:47:59.370Z,-3.10
2019-01-21T01:50:01.047Z,-3.10
2019-01-21T01:52:02.436Z,-3.20
2019-01-21T01:54:04.069Z,-3.20
2019-01-21T01:56:05.476Z,-3.20
2019-01-21T01:58:06.960Z,-3.20
2019-01-21T02:00:13.703Z,-3.20
2019-01-21T02:02:15.079Z,-3.20
2019-01-21T02:04:16.427Z,-3.10
2019-01-21T02:06:17.904Z,-3.20
2019-01-21T02:08:19.322Z,-3.20
2019-01-21T02:10:20.703Z,-3.30
2019-01-21T02:12:22.669Z,-3.30
2019-01-21T02:14:24.026Z,-3.30
2019-01-21T02:16:25.415Z,-3.30
2019-01-21T02:18:26.825Z,-3.30
2019-01-21T02:20:28.187Z,-3.30
2019-01-21T02:22:30.173Z,-3.40
2019-01-21T02:24:34.485Z,-3.40
2019-01-21T02:26:40.900Z,-3.40
2019-01-21T02:28:50.770Z,-3.40
2019-01-21T02:31:12.896Z,-3.40
2019-01-21T02:33:22.714Z,-3.40
2019-01-21T02:35:29.851Z,-3.50
2019-01-21T02:37:42.956Z,-3.50
2019-01-21T02:40:27.972Z,-3.50
2019-01-21T02:43:01.536Z,-3.40
2019-01-21T02:45:31.282Z,-3.40
2019-01-21T02:47:38.654Z,-3.40
2019-01-21T02:50:04.112Z,-3.40
2019-01-21T02:52:25.570Z,-3.40
2019-01-21T02:55:11.756Z,-3.40
2019-01-21T02:57:47.422Z,-3.40
2019-01-21T03:00:06.504Z,-3.40
2019-01-21T03:02:29.197Z,-3.40
2019-01-21T03:05:09.592Z,-3.40
2019-01-21T03:07:34.026Z,-3.40
2019-01-21T03:09:47.089Z,-3.50
2019-01-21T03:12:00.184Z,-3.50
2019-01-21T03:14:34.040Z,-3.50
2019-01-21T03:17:14.239Z,-3.40
2019-01-21T03:20:00.568Z,-3.40
2019-01-21T03:22:22.594Z,-3.40
2019-01-21T03:24:35.501Z,-3.40
2019-01-21T03:26:48.164Z,-3.30
2019-01-21T03:29:17.866Z,-3.30
2019-01-21T03:31:47.690Z,-3.30
2019-01-21T03:34:23.210Z,-3.40
2019-01-21T03:37:07.862Z,-3.40
2019-01-21T03:39:33.017Z,-3.50
2019-01-21T03:41:43.097Z,-3.50
2019-01-21T03:44:08.099Z,-3.60
2019-01-21T03:46:35.998Z,-3.60
2019-01-21T03:48:39.679Z,-3.60
2019-01-21T03:50:52.491Z,-3.50
2019-01-21T03:53:14.852Z,-3.60
2019-01-21T03:55:17.142Z,-3.50
2019-01-21T03:57:33.102Z,-3.50
2019-01-21T03:59:52.122Z,-3.40
2019-01-21T04:02:13.825Z,-3.40
2019-01-21T04:04:52.178Z,-3.40
2019-01-21T04:06:58.721Z,-3.40
2019-01-21T04:09:24.260Z,-3.40
2019-01-21T04:11:31.365Z,-3.50
2019-01-21T04:13:47.238Z,-3.50
2019-01-21T04:15:57.310Z,-3.50
2019-01-21T04:18:24.850Z,-3.50
2019-01-21T04:20:59.313Z,-3.50
2019-01-21T04:23:24.235Z,-3.50
2019-01-21T04:25:49.412Z,-3.60
2019-01-21T04:28:11.044Z,-3.50
2019-01-21T04:30:36.300Z,-3.60
2019-01-21T04:32:49.239Z,-3.70
2019-01-21T04:34:59.081Z,-3.70
2019-01-21T04:37:24.303Z,-3.80
2019-01-21T04:39:57.031Z,-3.80
2019-01-21T04:42:19.012Z,-3.90
2019-01-21T04:44:49.858Z,-3.80
2019-01-21T04:47:05.654Z,-3.90
2019-01-21T04:49:24.798Z,-3.80
2019-01-21T04:51:46.699Z,-3.80
2019-01-21T04:54:05.694Z,-3.80
2019-01-21T04:56:33.865Z,-3.80
2019-01-21T04:58:56.036Z,-3.70
2019-01-21T05:01:14.425Z,-3.70
2019-01-21T05:03:36.634Z,-3.70
2019-01-21T05:05:43.760Z,-3.70
2019-01-21T05:08:10.282Z,-3.80
2019-01-21T05:10:29.494Z,-3.80
2019-01-21T05:12:37.056Z,-3.80
2019-01-21T05:14:53.029Z,-3.80
2019-01-21T05:17:23.832Z,-3.70
2019-01-21T05:19:52.101Z,-3.70
2019-01-21T05:22:24.474Z,-3.70
2019-01-21T05:24:46.663Z,-3.70
2019-01-21T05:27:25.663Z,-3.60
2019-01-21T05:29:54.033Z,-3.70
2019-01-21T05:32:21.992Z,-3.60
2019-01-21T05:34:41.178Z,-3.70
2019-01-21T05:37:08.938Z,-3.70
2019-01-21T05:39:32.731Z,-3.70
2019-01-21T05:42:11.372Z,-3.80
2019-01-21T05:44:45.709Z,-3.80
2019-01-21T05:47:13.679Z,-3.90
2019-01-21T05:49:33.130Z,-3.90
2019-01-21T05:52:14.513Z,-3.90
2019-01-21T05:54:48.699Z,-3.80
2019-01-21T05:57:16.304Z,-3.80
2019-01-21T05:59:55.154Z,-3.80
2019-01-21T06:02:02.253Z,-3.80
2019-01-21T06:04:21.071Z,-3.80
2019-01-21T06:06:52.172Z,-3.90
2019-01-21T06:09:29.500Z,-3.80
2019-01-21T06:11:56.282Z,-3.80
2019-01-21T06:14:12.223Z,-3.80
2019-01-21T06:16:43.272Z,-3.80
2019-01-21T06:18:59.022Z,-3.80
2019-01-21T06:21:20.544Z,-3.80
2019-01-21T06:23:30.671Z,-3.80
2019-01-21T06:26:15.317Z,-3.80
2019-01-21T06:28:37.299Z,-3.70
2019-01-21T06:31:24.583Z,-3.80
2019-01-21T06:33:34.267Z,-3.80
2019-01-21T06:35:50.384Z,-3.90
2019-01-21T06:38:00.241Z,-3.80
2019-01-21T06:40:35.640Z,-3.80
2019-01-21T06:42:51.605Z,-3.90
2019-01-21T06:45:30.185Z,-3.90
2019-01-21T06:48:05.841Z,-4.00
2019-01-21T06:50:27.536Z,-4.00
2019-01-21T06:52:46.028Z,-4.00
2019-01-21T06:54:53.122Z,-4.00
2019-01-21T06:57:11.596Z,-4.10
2019-01-21T06:59:36.548Z,-4.10
2019-01-21T07:01:49.565Z,-4.10
2019-01-21T07:04:32.957Z,-4.10
2019-01-21T07:06:45.942Z,-4.10
2019-01-21T07:08:56.099Z,-4.10
2019-01-21T07:11:11.513Z,-4.10
2019-01-21T07:13:51.875Z,-4.10
2019-01-21T07:16:27.318Z,-4.10
2019-01-21T07:18:49.018Z,-4.10
2019-01-21T07:21:12.793Z,-4.20
2019-01-21T07:23:31.697Z,-4.20
2019-01-21T07:25:45.070Z,-4.20
2019-01-21T07:28:12.574Z,-4.20
2019-01-21T07:30:34.493Z,-4.20
2019-01-21T07:32:50.258Z,-4.20
2019-01-21T07:35:12.209Z,-4.20
2019-01-21T07:37:34.257Z,-4.20
2019-01-21T07:39:58.709Z,-4.20
2019-01-21T07:42:08.549Z,-4.20
2019-01-21T07:44:39.062Z,-4.20
2019-01-21T07:47:03.599Z,-4.30
2019-01-21T07:49:36.248Z,-4.30
2019-01-21T07:52:03.077Z,-4.30
2019-01-21T07:54:39.758Z,-4.30
2019-01-21T07:57:01.425Z,-4.30
2019-01-21T07:59:44.408Z,-4.30
2019-01-21T08:02:09.392Z,-4.40
2019-01-21T08:04:36.202Z,-4.40
2019-01-21T08:06:52.165Z,-4.50
2019-01-21T08:09:08.138Z,-4.40
2019-01-21T08:11:39.545Z,-4.30
2019-01-21T08:14:09.341Z,-4.20
2019-01-21T08:16:31.457Z,-4.20
2019-01-21T08:19:08.159Z,-4.20
2019-01-21T08:21:27.057Z,-4.10
2019-01-21T08:23:49.117Z,-4.10
2019-01-21T08:26:10.857Z,-4.10
2019-01-21T08:28:42.307Z,-4.10
2019-01-21T08:31:16.197Z,-4.10
2019-01-21T08:33:35.631Z,-4.10
2019-01-21T08:36:11.608Z,-4.10
2019-01-21T08:38:47.083Z,-4.20
2019-01-21T08:40:59.937Z,-4.20
2019-01-21T08:43:30.785Z,-4.10
2019-01-21T08:45:46.955Z,-4.10
2019-01-21T08:47:54.027Z,-4.10
2019-01-21T08:50:16.040Z,-4.00
2019-01-21T08:52:23.156Z,-4.00
2019-01-21T08:54:39.103Z,-4.00
2019-01-21T08:57:11.799Z,-4.00
2019-01-21T08:59:30.782Z,-4.00
2019-01-21T09:02:10.543Z,-4.10
2019-01-21T09:04:53.551Z,-4.00
2019-01-21T09:07:18.817Z,-4.10
2019-01-21T09:09:34.671Z,-4.10
2019-01-21T09:12:26.999Z,-4.10
2019-01-21T09:14:49.281Z,-4.00
2019-01-21T09:17:32.657Z,-4.10
2019-01-21T09:19:48.599Z,-4.00
2019-01-21T09:22:16.618Z,-4.00
2019-01-21T09:24:55.285Z,-3.90
2019-01-21T09:27:13.933Z,-3.90
2019-01-21T09:29:33.069Z,-3.80
2019-01-21T09:31:48.674Z,-3.80
2019-01-21T09:34:19.691Z,-3.70
2019-01-21T09:36:44.274Z,-3.80
2019-01-21T09:39:11.016Z,-3.90
2019-01-21T09:41:32.980Z,-3.90
2019-01-21T09:43:45.680Z,-4.00
2019-01-21T09:46:04.601Z,-4.10
2019-01-21T09:48:05.676Z,-4.00
2019-01-21T09:50:07.095Z,-3.90
2019-01-21T09:52:10.677Z,-3.90
2019-01-21T09:54:12.252Z,-3.90
2019-01-21T09:56:13.771Z,-3.80
2019-01-21T09:58:15.473Z,-3.90
2019-01-21T10:00:19.102Z,-3.90
2019-01-21T10:02:29.013Z,-4.00
2019-01-21T10:04:38.341Z,-4.00
2019-01-21T10:06:44.543Z,-4.00
2019-01-21T10:08:51.629Z,-4.00
2019-01-21T10:11:16.334Z,-4.00
2019-01-21T10:13:41.096Z,-4.00
2019-01-21T10:16:00.329Z,-3.80
2019-01-21T10:18:16.336Z,-3.80
2019-01-21T10:20:28.982Z,-3.80
2019-01-21T10:23:06.329Z,-3.90
2019-01-21T10:25:16.203Z,-3.90
2019-01-21T10:27:45.258Z,-3.90
2019-01-21T10:30:23.967Z,-3.80
2019-01-21T10:32:48.710Z,-3.70
2019-01-21T10:35:33.370Z,-3.70
2019-01-21T10:38:13.584Z,-3.70
2019-01-21T10:40:32.835Z,-3.70
2019-01-21T10:42:45.650Z,-3.60
2019-01-21T10:45:07.961Z,-3.60
2019-01-21T10:47:30.133Z,-3.60
2019-01-21T10:53:06.026Z,-3.50
2019-01-21T10:55:21.968Z,-3.40
2019-01-21T10:57:46.480Z,-3.40
2019-01-21T11:00:10.207Z,-3.20
2019-01-21T11:02:40.731Z,-3.20
2019-01-21T11:04:53.350Z,-3.20
2019-01-21T11:07:12.277Z,-3.20
2019-01-21T11:09:19.353Z,-3.30
2019-01-21T11:11:41.364Z,-3.30
2019-01-21T11:14:06.458Z,-3.30
2019-01-21T11:17:07.471Z,-3.20
2019-01-21T11:19:50.552Z,-3.20
2019-01-21T11:22:33.584Z,-3.20
2019-01-21T11:25:16.643Z,-3.10
2019-01-21T11:27:59.669Z,-3.20
2019-01-21T11:30:42.768Z,-3.30
2019-01-21T11:33:43.782Z,-3.30
2019-01-21T11:36:44.834Z,-3.30
2019-01-21T11:39:45.829Z,-3.20
2019-01-21T11:42:46.971Z,-3.10
2019-01-21T11:45:30.007Z,-3.00
2019-01-21T11:48:31.045Z,-3.10
2019-01-21T11:51:14.084Z,-3.00
2019-01-21T11:54:15.130Z,-3.10
2019-01-21T11:56:58.150Z,-3.00
2019-01-21T11:59:41.232Z,-3.10
2019-01-21T12:05:29.601Z,-3.00
2019-01-21T12:11:37.900Z,-2.90
2019-01-21T12:14:20.934Z,-3.00
2019-01-21T12:17:21.977Z,-3.00
2019-01-21T12:20:23.025Z,-3.00
2019-01-21T12:23:06.107Z,-2.90
2019-01-21T12:25:49.123Z,-2.90
2019-01-21T12:28:50.175Z,-2.80
2019-01-21T12:31:51.163Z,-2.80
2019-01-21T12:34:34.238Z,-2.70
2019-01-21T12:37:17.382Z,-2.70
2019-01-21T12:40:00.410Z,-2.70
2019-01-21T12:42:43.492Z,-2.60
2019-01-21T12:45:44.564Z,-2.60
2019-01-21T12:48:27.595Z,-2.50
2019-01-21T12:51:28.615Z,-2.50
2019-01-21T12:54:29.605Z,-2.60
2019-01-21T12:57:30.682Z,-2.60
2019-01-21T13:00:13.720Z,-2.60
2019-01-21T13:03:14.771Z,-2.60
2019-01-21T13:06:15.861Z,-2.60
2019-01-21T13:08:58.981Z,-2.60
2019-01-21T13:11:42.086Z,-2.50
2019-01-21T13:14:25.100Z,-2.40
2019-01-21T13:17:08.202Z,-2.40
2019-01-21T13:20:09.213Z,-2.40
2019-01-21T13:22:52.287Z,-2.50
2019-01-21T13:25:35.331Z,-2.50
2019-01-21T13:31:00.013Z,-2.50
2019-01-21T13:33:43.073Z,-2.50
2019-01-21T13:36:26.165Z,-2.40
2019-01-21T13:39:09.237Z,-2.40
2019-01-21T13:41:52.273Z,-2.40
2019-01-21T13:44:29.522Z,-2.50
2019-01-21T13:47:36.970Z,-2.50
2019-01-21T13:50:02.850Z,-2.60
2019-01-21T13:52:24.500Z,-2.50
2019-01-21T13:54:34.312Z,-2.50
2019-01-21T13:56:41.409Z,-2.50
2019-01-21T13:59:09.619Z,-2.60
2019-01-21T14:01:25.234Z,-2.60
2019-01-21T14:03:44.188Z,-2.50
2019-01-21T14:06:12.388Z,-2.60
2019-01-21T14:09:00.702Z,-2.50
2019-01-21T14:11:10.554Z,-2.40
2019-01-21T14:13:29.402Z,-2.50
2019-01-21T14:15:44.949Z,-2.50
2019-01-21T14:18:14.225Z,-2.50
2019-01-21T14:20:26.968Z,-2.50
2019-01-21T14:22:43.176Z,-2.50
2019-01-21T14:25:13.180Z,-2.50
2019-01-21T14:27:50.601Z,-2.60
2019-01-21T14:30:00.526Z,-2.60
2019-01-21T14:32:24.758Z,-2.50
2019-01-21T14:34:40.768Z,-2.50
2019-01-21T14:36:57.046Z,-2.50
2019-01-21T14:39:18.920Z,-2.40
2019-01-21T14:41:44.165Z,-2.50
2019-01-21T14:44:11.103Z,-2.60
2019-01-21T14:46:30.265Z,-2.80
2019-01-21T14:49:04.566Z,-2.80
2019-01-21T14:51:36.997Z,-3.00
2019-01-21T14:54:06.424Z,-3.00
2019-01-21T14:56:34.688Z,-2.90
2019-01-21T14:59:11.894Z,-3.00
2019-01-21T15:01:49.538Z,-3.10
2019-01-21T15:04:29.728Z,-3.10
2019-01-21T15:06:48.766Z,-3.10
2019-01-21T15:08:58.806Z,-3.20
2019-01-21T15:11:27.132Z,-3.20
2019-01-21T15:13:46.508Z,-3.30
2019-01-21T15:15:59.367Z,-3.30
2019-01-21T15:18:12.597Z,-3.30
2019-01-21T15:20:19.697Z,-3.30
2019-01-21T15:22:29.761Z,-3.30
2019-01-21T15:24:48.490Z,-3.40
2019-01-21T15:27:01.684Z,-3.40
2019-01-21T15:29:39.158Z,-3.50
2019-01-21T15:32:01.122Z,-3.50
2019-01-21T15:34:45.871Z,-3.50
2019-01-21T15:37:24.933Z,-3.60
2019-01-21T15:40:14.763Z,-3.60
2019-01-21T15:42:46.333Z,-3.60
2019-01-21T15:45:05.691Z,-3.70
2019-01-21T15:47:27.513Z,-3.70
2019-01-21T15:49:37.626Z,-3.70
2019-01-21T15:51:44.735Z,-3.70
2019-01-21T15:53:51.799Z,-3.70
2019-01-21T15:56:10.989Z,-3.80
2019-01-21T15:58:39.592Z,-3.80
2019-01-21T16:00:55.472Z,-3.80
2019-01-21T16:03:31.273Z,-3.80
2019-01-21T16:06:12.203Z,-3.80
2019-01-21T16:08:17.550Z,-3.80
2019-01-21T16:10:36.669Z,-3.80
2019-01-21T16:13:04.865Z,-3.80
2019-01-21T16:15:24.367Z,-3.80
2019-01-21T16:17:42.760Z,-3.90
2019-01-21T16:19:44.273Z,-3.90
2019-01-21T16:22:31.756Z,-3.90
2019-01-21T16:24:53.911Z,-3.80
2019-01-21T16:27:07.053Z,-3.80
2019-01-21T16:29:14.119Z,-3.90
2019-01-21T16:31:22.266Z,-3.90
2019-01-21T16:33:32.479Z,-3.90
2019-01-21T16:35:45.479Z,-3.90
2019-01-21T16:38:10.968Z,-3.90
2019-01-21T16:40:27.070Z,-3.90
2019-01-21T16:42:28.107Z,-3.90
2019-01-21T16:44:29.539Z,-3.90
2019-01-21T16:46:30.890Z,-3.90
2019-01-21T16:48:32.252Z,-3.90
2019-01-21T16:50:33.663Z,-3.90
2019-01-21T16:52:35.012Z,-3.90
2019-01-21T16:54:36.383Z,-4.00
2019-01-21T16:56:37.808Z,-3.90
2019-01-21T16:58:39.176Z,-3.90
2019-01-21T17:00:40.525Z,-3.90
2019-01-21T17:02:41.914Z,-4.00
2019-01-21T17:04:43.261Z,-3.90
2019-01-21T17:06:44.603Z,-4.00
2019-01-21T17:08:46.150Z,-4.00
2019-01-21T17:10:47.613Z,-4.00
2019-01-21T17:12:48.990Z,-4.00
2019-01-21T17:14:57.224Z,-4.00
2019-01-21T17:16:53.812Z,-4.00
2019-01-21T17:18:55.175Z,-4.00
2019-01-21T17:20:56.614Z,-4.10
2019-01-21T17:22:58.056Z,-4.10
2019-01-21T17:24:59.394Z,-4.10
2019-01-21T17:27:00.791Z,-4.10
2019-01-21T17:29:02.248Z,-4.20
2019-01-21T17:31:03.756Z,-4.10
2019-01-21T17:33:05.477Z,-4.10
2019-01-21T17:35:09.428Z,-4.10
2019-01-21T17:37:10.874Z,-4.10
2019-01-21T17:39:12.365Z,-4.10
2019-01-21T17:41:14.173Z,-4.00
2019-01-21T17:43:15.522Z,-4.10
2019-01-21T17:45:18.801Z,-4.00
2019-01-21T17:47:20.158Z,-4.00
2019-01-21T17:49:21.507Z,-4.00
2019-01-21T17:51:22.998Z,-3.90
2019-01-21T17:53:24.335Z,-3.90
2019-01-21T17:55:25.800Z,-3.90
2019-01-21T17:57:27.204Z,-3.90
2019-01-21T17:59:28.554Z,-3.90
2019-01-21T18:01:29.888Z,-3.90
2019-01-21T18:03:31.321Z,-3.90
2019-01-21T18:05:32.759Z,-3.90
2019-01-21T18:07:34.127Z,-3.90
2019-01-21T18:09:35.542Z,-3.80
2019-01-21T18:11:41.259Z,-3.80
2019-01-21T18:13:40.158Z,-3.80
2019-01-21T18:15:41.566Z,-3.80
2019-01-21T18:17:42.915Z,-3.90
2019-01-21T18:19:44.295Z,-3.90
2019-01-21T18:21:46.834Z,-3.90
2019-01-21T18:23:48.224Z,-3.90
2019-01-21T18:25:49.578Z,-4.00
2019-01-21T18:27:51.049Z,-4.00
2019-01-21T18:29:52.404Z,-4.00
2019-01-21T18:31:53.758Z,-4.10
2019-01-21T18:33:55.184Z,-4.10
2019-01-21T18:35:56.529Z,-4.10
2019-01-21T18:37:57.940Z,-4.20
2019-01-21T18:39:59.469Z,-4.30
2019-01-21T18:42:00.932Z,-4.40
2019-01-21T18:44:02.294Z,-4.40
2019-01-21T18:46:03.821Z,-4.40
2019-01-21T18:48:05.384Z,-4.40
2019-01-21T18:50:09.649Z,-4.40
2019-01-21T18:52:11.555Z,-4.50
2019-01-21T18:54:12.917Z,-4.50
2019-01-21T18:56:14.275Z,-4.50
2019-01-21T18:58:15.672Z,-4.50
2019-01-21T19:00:21.836Z,-4.50
2019-01-21T19:02:23.196Z,-4.60
2019-01-21T19:04:24.619Z,-4.60
2019-01-21T19:06:25.973Z,-4.60
2019-01-21T19:08:27.321Z,-4.60
2019-01-21T19:10:28.739Z,-4.60
2019-01-21T19:12:30.153Z,-4.60
2019-01-21T19:14:31.581Z,-4.60
2019-01-21T19:16:32.930Z,-4.70
2019-01-21T19:18:34.383Z,-4.70
2019-01-21T19:20:35.735Z,-4.70
2019-01-21T19:22:37.107Z,-4.70
2019-01-21T19:24:38.572Z,-4.70
2019-01-21T19:26:40.002Z,-4.80
2019-01-21T19:28:41.420Z,-4.80
2019-01-21T19:30:42.804Z,-4.80
2019-01-21T19:32:44.304Z,-4.80
2019-01-21T19:34:45.729Z,-4.80
2019-01-21T19:36:47.089Z,-4.80
2019-01-21T19:38:48.688Z,-4.80
2019-01-21T19:40:50.233Z,-4.80
2019-01-21T19:42:51.586Z,-4.80
2019-01-21T19:44:52.929Z,-4.80
2019-01-21T19:46:54.583Z,-4.80
2019-01-21T19:48:55.926Z,-4.80
2019-01-21T19:50:57.297Z,-4.80
2019-01-21T19:52:58.723Z,-4.80
2019-01-21T19:55:00.153Z,-4.80
2019-01-21T19:57:01.555Z,-4.80
2019-01-21T19:59:03.082Z,-4.80
2019-01-21T20:01:04.427Z,-4.80
2019-01-21T20:03:05.780Z,-4.70
2019-01-21T20:05:08.895Z,-4.70
2019-01-21T20:07:10.258Z,-4.80
2019-01-21T20:09:11.602Z,-4.80
2019-01-21T20:11:13.021Z,-4.80
2019-01-21T20:13:14.373Z,-4.70
2019-01-21T20:15:17.158Z,-4.70
2019-01-21T20:17:18.580Z,-4.70
2019-01-21T20:19:19.940Z,-4.70
2019-01-21T20:21:21.320Z,-4.70
2019-01-21T20:23:22.729Z,-4.70
2019-01-21T20:25:24.388Z,-4.70
2019-01-21T20:27:25.749Z,-4.70
2019-01-21T20:29:27.161Z,-4.80
2019-01-21T20:31:28.496Z,-4.80
2019-01-21T20:33:31.031Z,-4.80
2019-01-21T20:35:32.377Z,-4.80
2019-01-21T20:37:33.721Z,-4.80
2019-01-21T20:39:35.184Z,-4.80
2019-01-21T20:41:36.645Z,-4.80
2019-01-21T20:43:38.005Z,-4.80
2019-01-21T20:45:39.360Z,-4.90
2019-01-21T20:47:41.156Z,-4.90
2019-01-21T20:49:42.518Z,-4.90
2019-01-21T20:51:43.852Z,-4.90
2019-01-21T20:53:45.394Z,-5.00
2019-01-21T20:55:46.741Z,-5.00
2019-01-21T20:57:48.195Z,-5.00
2019-01-21T20:59:49.616Z,-5.00
2019-01-21T21:01:51.464Z,-5.00
2019-01-21T21:03:52.841Z,-5.00
2019-01-21T21:05:54.290Z,-5.00
2019-01-21T21:07:55.668Z,-5.00
2019-01-21T21:09:57.000Z,-4.90
2019-01-21T21:11:58.402Z,-5.00
2019-01-21T21:13:59.734Z,-5.00
2019-01-21T21:16:01.072Z,-5.00
2019-01-21T21:18:02.784Z,-5.00
2019-01-21T21:20:08.858Z,-5.00
2019-01-21T21:22:10.194Z,-5.00
2019-01-21T21:24:11.598Z,-5.00
2019-01-21T21:26:12.966Z,-5.00
2019-01-21T21:28:14.366Z,-5.00
2019-01-21T21:30:28.268Z,-5.00
2019-01-21T21:32:29.687Z,-5.00
2019-01-21T21:34:31.029Z,-5.00
2019-01-21T21:36:32.393Z,-5.00
2019-01-21T21:38:33.802Z,-5.00
2019-01-21T21:40:35.611Z,-5.00
2019-01-21T21:42:37.099Z,-5.00
2019-01-21T21:44:38.552Z,-5.00
2019-01-21T21:46:39.928Z,-5.00
2019-01-21T21:48:41.297Z,-5.00
2019-01-21T21:50:42.697Z,-5.00
2019-01-21T21:52:44.040Z,-5.00
2019-01-21T21:54:45.421Z,-4.90
2019-01-21T21:56:47.136Z,-4.90
2019-01-21T21:58:48.684Z,-4.80
2019-01-21T22:00:50.028Z,-4.90
2019-01-21T22:02:51.524Z,-4.90
2019-01-21T22:04:53.057Z,-4.80
2019-01-21T22:06:54.420Z,-4.80
2019-01-21T22:08:56.288Z,-4.80
2019-01-21T22:10:57.695Z,-4.80
2019-01-21T22:12:59.063Z,-4.80
2019-01-21T22:15:00.416Z,-4.80
2019-01-21T22:17:01.801Z,-4.80
2019-01-21T22:19:03.254Z,-4.70
2019-01-21T22:21:04.712Z,-4.70
2019-01-21T22:23:06.108Z,-4.70
2019-01-21T22:25:08.264Z,-4.70
2019-01-21T22:27:10.123Z,-4.60
2019-01-21T22:29:11.541Z,-4.60
2019-01-21T22:31:12.990Z,-4.60
2019-01-21T22:33:14.355Z,-4.60
2019-01-21T22:35:15.772Z,-4.50
2019-01-21T22:37:17.537Z,-4.50
2019-01-21T22:39:18.920Z,-4.50
2019-01-21T22:41:20.441Z,-4.50
2019-01-21T22:43:21.802Z,-4.60
2019-01-21T22:45:23.247Z,-4.60
2019-01-21T22:47:24.789Z,-4.60
2019-01-21T22:49:26.139Z,-4.50
2019-01-21T22:51:27.647Z,-4.50
2019-01-21T22:53:29.055Z,-4.50
2019-01-21T22:55:30.397Z,-4.50
2019-01-21T22:57:31.747Z,-4.60
2019-01-21T22:59:33.136Z,-4.50
2019-01-21T23:01:37.796Z,-4.50
2019-01-21T23:03:39.298Z,-4.60
2019-01-21T23:05:40.967Z,-4.50
2019-01-21T23:07:42.316Z,-4.50
2019-01-21T23:09:43.877Z,-4.40
2019-01-21T23:11:45.239Z,-4.40
2019-01-21T23:13:46.577Z,-4.40
2019-01-21T23:15:48.384Z,-4.40
2019-01-21T23:17:49.744Z,-4.40
2019-01-21T23:19:52.201Z,-4.40
2019-01-21T23:21:53.627Z,-4.40
2019-01-21T23:23:54.988Z,-4.30
2019-01-21T23:25:56.340Z,-4.30
2019-01-21T23:27:57.745Z,-4.30
2019-01-21T23:29:59.082Z,-4.30
2019-01-21T23:32:00.461Z,-4.30
2019-01-21T23:34:02.653Z,-4.30
2019-01-21T23:36:04.115Z,-4.30
2019-01-21T23:38:05.453Z,-4.30
2019-01-21T23:40:09.460Z,-4.30
2019-01-21T23:42:10.881Z,-4.30
2019-01-21T23:44:12.700Z,-4.30
2019-01-21T23:46:14.040Z,-4.20
2019-01-21T23:48:15.391Z,-4.20
2019-01-21T23:50:17.111Z,-4.20
2019-01-21T23:52:18.444Z,-4.20
2019-01-21T23:54:19.805Z,-4.20
2019-01-21T23:56:21.549Z,-4.20
2019-01-21T23:58:22.905Z,-4.20
